Time;durP1;ratioP1;P1;durP2;ratioP2;P2;SDS_P1;SDS_P2;PMS_P1;PMS_P2;Temp;Humidity;BMP_temperature;BMP_pressure;BME280_temperature;BME280_humidity;BME280_pressure;Samples;Min_cycle;Max_cycle;Signal;HPM_P1;HPM_P2
2022/03/24 00:00:39;;;;;;;46.33;26.10;;;8.80;76.80;;;6.74;73.18;101848.00;5016161;28;20451;-89
2022/03/24 00:03:08;;;;;;;41.75;24.95;;;8.80;77.00;;;6.68;73.76;101851.22;5032170;28;20041;-90
2022/03/24 00:05:36;;;;;;;44.67;24.90;;;8.70;77.30;;;6.64;73.82;101846.06;5031505;28;20096;-90
2022/03/24 00:08:06;;;;;;;42.03;25.10;;;8.70;77.50;;;6.59;74.02;101842.88;5030637;28;20041;-90
2022/03/24 00:10:33;;;;;;;50.30;26.48;;;8.70;77.70;;;6.55;74.26;101845.94;5019695;28;20492;-90
2022/03/24 00:13:00;;;;;;;45.00;25.33;;;8.70;77.70;;;6.53;74.58;101846.09;5010725;28;20145;-89
2022/03/24 00:15:28;;;;;;;43.25;26.15;;;8.60;77.70;;;6.44;74.34;101836.88;5029528;28;20495;-89
2022/03/24 00:17:55;;;;;;;45.47;25.55;;;8.60;78.10;;;6.48;74.88;101845.59;5026387;28;20045;-90
2022/03/24 00:20:25;;;;;;;49.85;25.65;;;8.60;78.10;;;6.38;75.51;101842.78;5028310;28;20117;-90
2022/03/24 00:22:53;;;;;;;41.25;24.67;;;8.50;78.40;;;6.33;76.07;101839.59;5031243;28;20092;-90
2022/03/24 00:25:21;;;;;;;46.80;26.75;;;8.50;78.50;;;6.32;76.22;101839.69;5029119;28;20049;-90
2022/03/24 00:27:48;;;;;;;45.75;25.55;;;8.50;78.50;;;6.24;76.29;101838.50;5024567;28;20052;-90
2022/03/24 00:30:15;;;;;;;45.22;24.75;;;8.40;78.70;;;6.25;76.31;101834.78;5011867;28;20046;-90
2022/03/24 00:32:42;;;;;;;42.03;25.35;;;8.40;78.80;;;6.22;76.53;101829.63;5031213;28;20132;-90
2022/03/24 00:35:10;;;;;;;41.00;24.38;;;8.40;79.00;;;6.20;76.74;101834.28;5010068;28;20073;-89
2022/03/24 00:37:39;;;;;;;46.28;26.27;;;8.50;79.40;;;6.24;76.62;101827.69;5011603;28;20088;-90
2022/03/24 00:40:08;;;;;;;44.08;24.65;;;8.30;79.30;;;6.24;76.51;101830.38;5014333;28;20049;-89
2022/03/24 00:42:37;;;;;;;46.47;24.92;;;8.30;79.60;;;6.18;76.80;101824.59;5027558;28;20041;-90
2022/03/24 00:45:07;;;;;;;49.35;24.30;;;8.20;79.40;;;6.12;77.15;101823.25;5007481;28;20060;-89
2022/03/24 00:47:35;;;;;;;43.50;25.10;;;8.20;79.80;;;6.05;77.89;101820.19;5013416;28;20149;-89
2022/03/24 00:50:02;;;;;;;44.72;24.80;;;8.20;79.90;;;5.96;78.18;101820.94;5012471;28;20508;-89
2022/03/24 00:52:30;;;;;;;43.30;24.70;;;8.30;80.10;;;5.93;77.86;101828.38;5013061;28;20076;-89
2022/03/24 00:54:59;;;;;;;45.70;25.05;;;8.10;80.20;;;5.93;78.12;101833.78;5000023;28;20476;-91
2022/03/24 00:57:26;;;;;;;46.50;24.05;;;8.00;80.00;;;5.92;77.97;101823.94;5017361;28;20044;-90
2022/03/24 00:59:53;;;;;;;43.88;25.15;;;8.00;80.30;;;5.89;78.39;101827.75;5012838;28;20045;-90
2022/03/24 01:02:21;;;;;;;41.35;24.05;;;8.00;80.40;;;5.81;78.52;101820.28;5023858;28;20069;-89
2022/03/24 01:04:48;;;;;;;41.30;23.83;;;8.00;80.70;;;5.81;78.44;101824.81;5021061;28;20045;-90
2022/03/24 01:07:15;;;;;;;44.50;23.52;;;7.90;80.90;;;5.83;78.71;101825.56;5009210;28;20052;-89
2022/03/24 01:09:43;;;;;;;44.78;23.73;;;8.20;81.20;;;5.79;78.93;101827.63;4994496;28;20143;-89
2022/03/24 01:12:12;;;;;;;43.90;24.67;;;7.90;81.00;;;5.72;79.34;101825.53;4995774;28;20064;-90
2022/03/24 01:14:39;;;;;;;37.58;24.02;;;7.90;81.30;;;5.64;79.55;101812.63;5025614;28;20058;-90
2022/03/24 01:17:10;;;;;;;43.03;24.42;;;7.90;81.30;;;5.66;79.55;101821.47;4995337;28;20401;-89
2022/03/24 01:19:38;;;;;;;39.50;24.13;;;7.90;81.40;;;5.62;79.87;101820.00;5027982;28;20392;-89
2022/03/24 01:22:06;;;;;;;43.28;24.52;;;7.80;81.50;;;5.61;79.68;101820.97;5001075;28;20045;-90
2022/03/24 01:24:37;;;;;;;45.05;23.65;;;7.80;81.20;;;5.54;80.11;101812.50;5014994;28;20610;-89
2022/03/24 01:27:05;;;;;;;40.58;23.23;;;7.80;81.60;;;5.48;80.47;101808.44;5028812;28;20049;-89
2022/03/24 01:29:34;;;;;;;39.78;22.90;;;7.80;81.80;;;5.44;80.20;101812.34;5028546;28;20041;-90
2022/03/24 01:32:01;;;;;;;43.85;24.23;;;7.70;81.60;;;5.46;79.98;101815.81;5011187;28;20041;-91
2022/03/24 01:34:29;;;;;;;46.17;25.00;;;7.70;81.50;;;5.45;80.08;101814.06;5012587;28;20136;-90
2022/03/24 01:36:56;;;;;;;41.92;24.25;;;7.70;81.50;;;5.38;79.70;101810.13;5027189;28;20041;-90
2022/03/24 01:39:24;;;;;;;43.90;24.90;;;7.60;81.50;;;5.37;80.10;101805.72;5026679;28;20045;-90
2022/03/24 01:41:51;;;;;;;40.97;23.88;;;7.60;81.60;;;5.37;80.25;101805.72;5029325;28;20058;-89
2022/03/24 01:44:21;;;;;;;46.53;25.48;;;7.60;81.70;;;5.31;80.07;101811.56;5015119;28;20045;-89
2022/03/24 01:47:01;;;;;;;41.08;23.73;;;7.50;82.10;;;5.33;79.96;101814.16;5012001;28;20048;-89
2022/03/24 01:49:31;;;;;;;45.30;24.20;;;7.50;81.80;;;5.33;79.69;101808.75;5008470;28;20510;-89
2022/03/24 01:51:59;;;;;;;45.55;24.67;;;7.50;81.80;;;5.29;79.67;101805.44;5008594;28;20108;-89
2022/03/24 01:54:32;;;;;;;41.55;24.25;;;7.50;81.70;;;5.28;80.20;101806.41;5021241;28;20025;-89
2022/03/24 01:57:00;;;;;;;46.60;24.35;;;7.40;82.20;;;5.25;80.64;101807.53;4992581;28;20050;-90
2022/03/24 01:59:30;;;;;;;37.83;23.70;;;7.40;82.40;;;5.23;80.09;101800.50;5015281;28;20424;-89
2022/03/24 02:01:59;;;;;;;45.28;24.70;;;7.40;82.20;;;5.22;80.63;101802.34;5011524;28;20052;-90
2022/03/24 02:04:26;;;;;;;42.53;24.23;;;7.40;82.50;;;5.15;81.05;101808.34;5008087;28;20148;-89
2022/03/24 02:06:54;;;;;;;45.25;24.80;;;7.40;82.60;;;5.19;80.74;101807.13;5008609;28;20053;-89
2022/03/24 02:09:22;;;;;;;44.05;23.77;;;7.30;82.30;;;5.16;80.41;101802.84;5023482;28;20099;-90
2022/03/24 02:11:49;;;;;;;45.10;24.90;;;7.30;82.40;;;5.12;80.71;101801.31;5011415;28;20503;-90
2022/03/24 02:14:18;;;;;;;45.97;23.92;;;7.30;82.40;;;5.13;80.78;101807.59;5001374;28;20049;-90
2022/03/24 02:16:49;;;;;;;42.88;23.63;;;7.20;82.60;;;5.06;81.16;101802.69;4991725;28;20053;-90
2022/03/24 02:19:21;;;;;;;38.05;22.90;;;7.20;82.90;;;5.05;81.76;101803.66;5001955;28;20112;-90
2022/03/24 02:21:52;;;;;;;44.75;22.92;;;7.20;83.10;;;5.00;82.06;101788.78;5009800;28;20052;-90
2022/03/24 02:24:22;;;;;;;46.28;24.35;;;7.20;83.50;;;4.99;81.93;101800.53;5021017;28;20123;-89
2022/03/24 02:26:51;;;;;;;42.30;24.77;;;7.20;83.50;;;4.95;82.72;101793.66;5028004;28;20326;-90
2022/03/24 02:29:25;;;;;;;43.42;24.05;;;7.10;83.80;;;4.94;82.96;101798.19;5007784;28;20045;-90
2022/03/24 02:31:54;;;;;;;41.13;24.05;;;7.10;84.00;;;4.87;83.34;101791.53;5020126;28;20108;-90
2022/03/24 02:34:40;;;;;;;51.67;25.48;;;7.10;84.20;;;4.86;83.55;101787.13;5014073;28;20416;-90
2022/03/24 02:37:10;;;;;;;47.85;25.15;;;7.10;84.00;;;4.87;83.27;101786.16;4992026;28;20435;-89
2022/03/24 02:39:41;;;;;;;51.40;26.73;;;7.10;84.20;;;4.86;83.97;101795.22;5020948;28;20124;-90
2022/03/24 02:42:13;;;;;;;;;;;7.10;84.50;;;4.81;83.49;101786.63;5011871;28;20077;-89
2022/03/24 02:44:41;;;;;;;44.28;24.38;;;7.00;84.50;;;4.77;83.72;101785.97;5007603;28;19925;-90
2022/03/24 02:47:10;;;;;;;43.00;24.27;;;7.00;84.40;;;4.81;83.87;101797.41;5025499;28;20056;-89
2022/03/24 02:49:40;;;;;;;48.28;25.35;;;7.00;84.80;;;4.83;83.66;101790.06;4992647;28;20041;-89
2022/03/24 02:52:09;;;;;;;43.85;24.95;;;7.00;84.70;;;4.79;83.75;101793.97;4991570;28;20133;-89
2022/03/24 02:54:38;;;;;;;42.97;23.65;;;7.00;84.90;;;4.73;84.18;101797.97;5008022;28;20044;-90
2022/03/24 02:57:07;;;;;;;43.88;24.33;;;6.90;84.90;;;4.68;84.34;101795.66;5009427;28;20137;-90
2022/03/24 02:59:34;;;;;;;43.78;24.45;;;6.90;84.90;;;4.64;84.36;101786.03;5023886;28;20046;-90
2022/03/24 03:02:06;;;;;;;45.10;24.85;;;6.80;84.80;;;4.66;84.24;101794.91;5010321;28;20103;-89
2022/03/24 03:04:34;;;;;;;47.50;24.55;;;6.80;85.10;;;4.60;84.35;101787.25;5023796;28;20046;-90
2022/03/24 03:07:03;;;;;;;53.22;25.30;;;6.80;85.30;;;4.62;84.43;101795.22;4997281;28;20500;-90
2022/03/24 03:09:33;;;;;;;51.33;26.35;;;6.70;85.40;;;4.53;84.77;101791.38;5024092;28;20152;-89
2022/03/24 03:12:02;;;;;;;46.63;25.40;;;6.70;85.70;;;4.63;84.58;101802.34;5029038;28;20041;-89
2022/03/24 03:14:29;;;;;;;44.15;24.15;;;6.70;85.50;;;4.63;85.22;101789.72;5015940;28;20113;-90
2022/03/24 03:16:58;;;;;;;45.45;24.60;;;6.70;85.90;;;4.65;84.86;101797.69;5020297;28;20041;-90
2022/03/24 03:19:27;;;;;;;48.47;25.45;;;6.70;85.80;;;4.60;85.13;101797.19;5032638;28;20041;-89
2022/03/24 03:21:54;;;;;;;46.75;25.15;;;6.70;85.80;;;4.57;85.04;101805.47;5016958;28;20042;-90
2022/03/24 03:24:22;;;;;;;42.40;23.92;;;6.80;85.90;;;4.45;84.92;101788.38;5019162;28;20122;-89
2022/03/24 03:26:52;;;;;;;43.60;23.65;;;6.70;85.70;;;4.45;85.68;101807.25;5022586;28;20037;-90
2022/03/24 03:29:22;;;;;;;44.35;24.95;;;6.60;86.00;;;4.43;85.44;101809.19;5014571;28;20057;-90
2022/03/24 03:31:50;;;;;;;42.00;24.42;;;6.60;85.90;;;4.39;85.62;101802.31;5030888;28;20127;-90
2022/03/24 03:34:17;;;;;;;41.70;23.23;;;6.60;86.10;;;4.33;86.23;101805.47;5031640;28;20053;-90
2022/03/24 03:36:45;;;;;;;45.08;24.42;;;6.50;86.30;;;4.28;86.05;101795.00;5019863;28;20042;-89
2022/03/24 03:39:12;;;;;;;45.60;24.50;;;6.50;86.00;;;4.29;86.04;101802.13;5001563;28;20088;-89
2022/03/24 03:41:41;;;;;;;44.28;24.42;;;6.50;86.10;;;4.31;86.30;101801.03;5032386;28;20068;-90
2022/03/24 03:44:08;;;;;;;45.35;24.10;;;6.50;86.20;;;4.30;86.13;101803.84;5012551;28;20056;-90
2022/03/24 03:46:37;;;;;;;43.67;25.00;;;6.50;86.40;;;4.24;86.78;101805.16;5030479;28;20144;-89
2022/03/24 03:49:07;;;;;;;44.53;24.98;;;6.40;86.60;;;4.23;86.75;101800.75;5025846;28;20457;-90
2022/03/24 03:51:35;;;;;;;47.85;24.88;;;6.40;86.60;;;4.20;87.41;101798.25;5022702;28;20458;-89
2022/03/24 03:54:03;;;;;;;44.72;23.70;;;6.40;87.00;;;4.21;87.23;101805.41;5012462;28;20084;-89
2022/03/24 03:56:30;;;;;;;46.53;24.48;;;6.30;86.80;;;4.18;86.73;101800.22;4994676;28;20563;-90
2022/03/24 03:58:57;;;;;;;45.83;23.73;;;6.30;86.70;;;4.13;87.23;101806.91;5000788;28;20045;-91
2022/03/24 04:01:25;;;;;;;50.90;24.92;;;6.30;87.10;;;4.09;87.85;101803.56;4996998;28;20037;-90
2022/03/24 04:03:54;;;;;;;43.80;24.35;;;6.30;87.30;;;4.04;87.49;101811.16;5016373;28;20061;-90
2022/03/24 04:06:24;;;;;;;40.90;23.15;;;6.30;87.40;;;4.02;88.06;101799.63;5031750;28;20495;-90
2022/03/24 04:08:51;;;;;;;46.90;24.87;;;6.20;87.40;;;3.98;87.75;101808.88;5010859;28;20160;-90
2022/03/24 04:11:19;;;;;;;43.85;24.17;;;6.20;87.50;;;3.96;87.83;101806.31;5013210;28;20125;-90
2022/03/24 04:13:46;;;;;;;46.00;23.63;;;6.20;87.30;;;3.96;87.23;101805.41;5030907;28;20522;-90
2022/03/24 04:16:14;;;;;;;43.15;23.98;;;6.20;87.40;;;3.90;88.04;101810.31;5015964;28;20041;-90
2022/03/24 04:18:43;;;;;;;47.15;24.08;;;6.10;87.50;;;3.88;87.89;101806.84;5015237;28;20038;-91
2022/03/24 04:21:13;;;;;;;44.65;24.50;;;6.10;87.50;;;3.92;87.98;101810.16;5014702;28;20033;-89
2022/03/24 04:23:42;;;;;;;47.47;25.85;;;6.10;87.50;;;3.90;88.73;101810.31;5012754;28;20038;-90
2022/03/24 04:26:10;;;;;;;48.83;25.25;;;6.10;88.10;;;3.90;88.68;101807.59;5014224;28;20038;-90
2022/03/24 04:28:38;;;;;;;44.63;24.35;;;6.10;88.20;;;3.85;88.65;101804.38;5013739;28;20053;-90
2022/03/24 04:31:06;;;;;;;46.88;25.20;;;6.10;88.20;;;3.79;89.27;101802.13;5028922;28;20099;-90
2022/03/24 04:33:33;;;;;;;48.47;24.52;;;6.10;88.30;;;3.77;88.96;101801.38;5005954;28;20046;-90
2022/03/24 04:36:00;;;;;;;41.55;23.55;;;6.00;88.30;;;3.74;89.60;101806.09;5014231;28;20045;-90
2022/03/24 04:38:29;;;;;;;43.13;23.33;;;6.10;88.40;;;3.67;89.71;101802.97;5011957;28;20135;-89
2022/03/24 04:40:57;;;;;;;44.15;24.58;;;6.00;88.20;;;3.67;89.24;101816.44;5010686;28;20407;-89
2022/03/24 04:43:24;;;;;;;43.58;23.27;;;5.90;88.40;;;3.68;88.83;101808.25;5026403;28;20049;-90
2022/03/24 04:45:52;;;;;;;40.42;23.67;;;5.90;88.30;;;3.64;88.99;101811.28;5025506;28;20132;-90
2022/03/24 04:48:20;;;;;;;46.03;24.33;;;5.90;88.30;;;3.64;89.60;101813.97;5029194;28;20076;-90
2022/03/24 04:50:48;;;;;;;48.35;25.50;;;5.90;88.50;;;3.67;89.61;101816.44;5023945;28;20045;-90
2022/03/24 04:53:15;;;;;;;44.92;24.23;;;5.80;88.80;;;3.67;89.68;101814.59;5018445;28;20112;-89
2022/03/24 04:55:45;;;;;;;43.03;24.13;;;5.80;88.80;;;3.64;88.76;101811.28;5031443;28;20056;-90
2022/03/24 04:58:13;;;;;;;47.85;25.42;;;5.80;88.70;;;3.65;89.92;101818.38;5010452;28;20120;-89
2022/03/24 05:00:41;;;;;;;45.85;24.52;;;5.90;89.10;;;3.64;89.02;101816.66;5012129;28;20074;-91
2022/03/24 05:03:08;;;;;;;45.28;24.77;;;5.80;88.80;;;3.53;89.28;101809.31;5017887;28;20124;-91
2022/03/24 05:05:35;;;;;;;47.63;24.90;;;5.80;89.00;;;3.58;89.51;101812.56;5010769;28;20145;-90
2022/03/24 05:08:06;;;;;;;47.47;25.65;;;5.70;89.10;;;3.59;89.80;101821.50;5001679;28;20079;-87
2022/03/24 05:10:33;;;;;;;47.78;25.55;;;5.70;89.00;;;3.62;89.69;101826.69;5002358;28;20523;-88
2022/03/24 05:13:02;;;;;;;50.08;25.40;;;5.70;89.10;;;3.59;88.78;101818.81;5013812;28;20130;-81
2022/03/24 05:15:30;;;;;;;51.25;24.20;;;5.70;89.00;;;3.56;89.50;101821.69;5020608;28;20045;-82
2022/03/24 05:17:57;;;;;;;44.08;24.30;;;5.70;89.10;;;3.55;88.85;101818.16;5027135;28;20045;-83
2022/03/24 05:20:24;;;;;;;43.95;24.42;;;5.70;89.00;;;3.52;89.59;101819.25;5018293;28;20454;-82
2022/03/24 05:22:51;;;;;;;47.33;24.85;;;5.70;89.10;;;3.51;89.82;101822.88;5030405;28;20041;-83
2022/03/24 05:25:19;;;;;;;43.80;24.33;;;5.80;88.90;;;3.51;89.56;101825.56;5021392;28;20046;-83
2022/03/24 05:27:46;;;;;;;42.33;24.33;;;5.70;89.00;;;3.51;89.38;101816.66;5022286;28;20120;-83
2022/03/24 05:30:15;;;;;;;44.92;24.55;;;5.70;89.20;;;3.51;89.92;101812.13;5022735;28;20113;-82
2022/03/24 05:32:43;;;;;;;42.70;23.58;;;5.70;89.30;;;3.48;90.22;101817.75;5010420;28;20045;-82
2022/03/24 05:35:11;;;;;;;43.75;24.23;;;5.70;89.40;;;3.48;89.95;101816.84;5009845;28;20389;-83
2022/03/24 05:37:41;;;;;;;42.42;23.35;;;5.70;89.20;;;3.43;89.87;101806.41;5030091;28;20045;-81
2022/03/24 05:40:11;;;;;;;42.13;23.58;;;5.60;89.10;;;3.46;90.16;101814.25;5010208;28;20034;-82
2022/03/24 05:43:13;;;;;;;42.30;23.17;;;5.70;89.40;;;3.46;89.79;101816.94;5024298;28;20156;-87
2022/03/24 05:45:42;;;;;;;44.10;24.00;;;5.60;89.40;;;3.50;89.88;101821.19;5008349;28;20133;-84
2022/03/24 05:48:09;;;;;;;45.92;25.58;;;5.70;89.50;;;3.53;90.27;101820.09;5009698;28;20096;-84
2022/03/24 05:50:55;;;;;;;49.70;26.90;;;5.70;89.50;;;3.45;90.15;101817.94;5026610;28;20061;-84
2022/03/24 05:53:28;;;;;;;54.45;26.58;;;5.70;89.70;;;3.50;90.98;101815.78;4994502;28;20088;-83
2022/03/24 05:55:55;;;;;;;49.10;26.55;;;5.70;89.70;;;3.57;90.79;101818.06;5028165;28;20526;-84
2022/03/24 05:58:23;;;;;;;47.20;26.13;;;5.80;89.60;;;3.61;90.51;101815.03;5026246;28;20045;-84
2022/03/24 06:00:51;;;;;;;54.50;26.85;;;5.80;89.60;;;3.73;90.42;101821.38;5022405;28;20124;-85
2022/03/24 06:03:19;;;;;;;48.15;25.25;;;5.90;89.50;;;3.77;90.09;101820.22;5024216;28;20080;-84
2022/03/24 06:05:48;;;;;;;46.67;26.85;;;5.90;89.30;;;3.84;89.98;101829.56;5029761;28;20091;-86
2022/03/24 06:08:16;;;;;;;50.60;27.02;;;6.00;89.20;;;3.90;89.50;101828.25;5025065;28;20046;-87
2022/03/24 06:10:48;;;;;;;49.97;25.13;;;6.00;89.20;;;3.88;90.42;101819.44;5028869;28;20048;-87
2022/03/24 06:13:15;;;;;;;52.33;26.38;;;6.10;89.30;;;3.95;89.66;101823.41;5002907;28;20050;-88
2022/03/24 06:15:43;;;;;;;51.90;27.27;;;6.10;89.10;;;3.94;89.45;101816.34;5003879;28;20128;-89
2022/03/24 06:18:11;;;;;;;48.50;26.13;;;6.20;88.90;;;4.07;89.27;101835.16;5026058;28;20466;-90
2022/03/24 06:20:39;;;;;;;54.15;27.67;;;6.20;88.80;;;4.19;88.74;101838.78;5027327;28;20562;-80
2022/03/24 06:23:06;;;;;;;56.53;27.90;;;6.20;88.40;;;4.23;88.23;101832.22;5027300;28;20120;-88
2022/03/24 06:25:34;;;;;;;53.42;27.73;;;6.20;88.70;;;4.28;88.51;101833.63;5010340;28;20054;-88
2022/03/24 06:28:01;;;;;;;55.60;28.77;;;6.30;88.70;;;4.33;87.62;101832.41;5016664;28;20103;-84
2022/03/24 06:30:28;;;;;;;56.03;27.80;;;6.30;88.50;;;4.36;87.75;101837.56;5013300;28;20137;-84
2022/03/24 06:32:56;;;;;;;54.08;27.58;;;6.40;88.50;;;4.37;88.25;101833.91;5024285;28;20466;-85
2022/03/24 06:35:25;;;;;;;61.03;27.77;;;6.40;88.60;;;4.41;87.85;101840.81;5026360;28;20538;-85
2022/03/24 06:37:53;;;;;;;56.03;28.70;;;6.50;88.50;;;4.47;87.57;101843.03;5008103;28;20049;-85
2022/03/24 06:40:21;;;;;;;60.33;28.52;;;6.60;88.10;;;4.48;88.05;101828.59;5026959;28;20723;-85
2022/03/24 06:42:49;;;;;;;67.55;29.02;;;6.70;88.20;;;4.56;87.66;101836.97;5027862;28;20040;-86
2022/03/24 06:45:17;;;;;;;65.30;30.88;;;6.70;87.90;;;4.61;87.98;101837.50;4996696;28;20487;-86
2022/03/24 06:47:44;;;;;;;59.03;29.10;;;6.80;87.70;;;4.69;87.91;101836.94;5009118;28;20511;-86
2022/03/24 06:50:13;;;;;;;55.70;28.65;;;6.80;87.70;;;4.78;87.07;101838.06;5009567;28;20145;-86
2022/03/24 06:52:42;;;;;;;60.40;28.52;;;6.90;87.50;;;4.87;86.75;101840.09;5010024;28;20109;-86
2022/03/24 06:55:13;;;;;;;51.42;27.65;;;7.00;87.30;;;4.96;86.52;101839.41;5015188;28;20069;-86
2022/03/24 06:57:40;;;;;;;59.95;29.45;;;7.10;87.00;;;5.06;86.23;101837.75;5014772;28;20051;-86
2022/03/24 07:00:13;;;;;;;56.25;28.65;;;7.20;86.70;;;5.12;86.54;101835.53;5014244;28;20057;-86
2022/03/24 07:02:41;;;;;;;55.13;28.85;;;7.30;86.90;;;5.26;86.72;101836.22;5021458;28;20030;-86
2022/03/24 07:05:11;;;;;;;49.65;27.10;;;7.30;86.80;;;5.34;86.46;101832.94;5025856;28;20887;-87
2022/03/24 07:07:38;;;;;;;54.72;27.38;;;7.40;86.60;;;5.48;85.92;101838.13;5016489;28;20044;-86
2022/03/24 07:10:08;;;;;;;53.22;28.05;;;7.60;86.80;;;5.60;86.04;101838.16;5026722;28;20562;-87
2022/03/24 07:12:36;;;;;;;56.53;28.95;;;7.60;86.60;;;5.73;85.90;101838.03;5011731;28;20058;-88
2022/03/24 07:15:08;;;;;;;59.22;28.27;;;7.70;86.70;;;5.80;85.79;101831.19;5014274;28;20099;-87
2022/03/24 07:17:35;;;;;;;51.40;28.88;;;7.80;86.80;;;5.96;85.77;101837.16;5020562;28;20072;-87
2022/03/24 07:20:04;;;;;;;53.95;29.02;;;7.90;86.60;;;6.09;85.50;101838.84;5019491;28;20046;-86
2022/03/24 07:22:36;;;;;;;50.58;28.48;;;8.00;86.50;;;6.21;84.50;101844.16;5029309;28;20044;-86
2022/03/24 07:25:05;;;;;;;52.30;28.13;;;8.10;86.20;;;6.34;85.09;101843.13;5026807;28;20037;-87
2022/03/24 07:27:34;;;;;;;52.97;28.88;;;8.20;86.30;;;6.48;84.63;101853.72;5031852;28;20380;-87
2022/03/24 07:30:01;;;;;;;49.88;28.83;;;8.40;86.20;;;6.66;84.46;101848.63;5017384;28;20038;-86
2022/03/24 07:32:29;;;;;;;48.67;28.83;;;8.50;86.00;;;6.81;84.15;101849.22;5012760;28;20292;-87
2022/03/24 07:34:57;;;;;;;46.67;27.80;;;8.60;86.10;;;6.92;84.15;101849.19;5016549;28;20042;-88
2022/03/24 07:37:24;;;;;;;55.65;29.30;;;8.70;86.00;;;7.08;83.39;101842.47;5011277;28;20149;-89
2022/03/24 07:39:51;;;;;;;58.05;28.70;;;8.80;85.90;;;7.22;83.34;101845.75;5016645;28;20156;-88
2022/03/24 07:42:19;;;;;;;50.83;27.70;;;9.00;86.00;;;7.38;83.40;101856.13;5007427;28;20041;-88
2022/03/24 07:44:48;;;;;;;54.10;29.42;;;9.10;85.70;;;7.54;83.73;101849.38;5028224;28;20128;-87
2022/03/24 07:47:16;;;;;;;54.38;30.23;;;9.30;85.90;;;7.69;83.46;101853.50;4991862;28;20049;-88
2022/03/24 07:49:43;;;;;;;59.05;30.17;;;9.40;86.20;;;7.88;83.26;101847.34;5010703;28;20056;-88
2022/03/24 07:52:13;;;;;;;58.38;32.35;;;9.80;85.40;;;8.09;80.64;101850.03;5030539;28;20080;-88
2022/03/24 07:54:51;;;;;;;59.88;33.03;;;9.70;84.40;;;8.30;79.42;101849.09;5024769;28;20421;-89
2022/03/24 07:57:18;;;;;;;61.83;32.67;;;9.90;83.90;;;8.48;78.66;101849.34;5023455;28;20091;-89
2022/03/24 07:59:47;;;;;;;62.72;34.47;;;10.10;81.20;;;8.56;78.11;101842.22;5021252;28;20114;-89
2022/03/24 08:02:16;;;;;;;55.47;33.83;;;10.20;81.30;;;8.77;77.43;101844.81;5023941;28;20148;-89
2022/03/24 08:04:43;;;;;;;60.45;33.83;;;10.40;80.80;;;8.94;74.61;101846.00;5022711;28;20046;-89
2022/03/24 08:07:11;;;;;;;57.78;33.13;;;10.50;80.00;;;9.08;74.89;101846.59;5028211;28;20399;-89
2022/03/24 08:09:38;;;;;;;58.72;34.13;;;10.70;80.00;;;9.27;75.61;101851.16;5019307;28;20041;-89
2022/03/24 08:12:07;;;;;;;67.03;34.58;;;10.80;79.80;;;9.44;73.39;101846.88;5000174;28;20803;-89
2022/03/24 08:14:34;;;;;;;61.08;33.47;;;11.00;79.20;;;9.59;74.30;101846.31;5014643;28;20069;-88
2022/03/24 08:17:06;;;;;;;58.58;31.90;;;11.10;78.90;;;9.65;72.75;101850.25;5030067;28;20045;-89
2022/03/24 08:19:34;;;;;;;54.72;32.40;;;11.20;77.90;;;9.73;71.92;101847.69;5031032;28;20515;-89
2022/03/24 08:22:02;;;;;;;62.20;33.05;;;11.30;76.60;;;9.84;71.48;101859.41;5023196;28;20084;-88
2022/03/24 08:24:30;;;;;;;61.10;33.10;;;11.40;75.40;;;9.96;69.01;101850.06;5017489;28;20046;-88
2022/03/24 08:26:59;;;;;;;60.85;31.48;;;11.50;76.30;;;10.11;69.91;101854.03;5024238;28;20048;-88
2022/03/24 08:29:26;;;;;;;58.42;33.63;;;11.60;76.20;;;10.25;67.65;101851.84;5008883;28;20071;-89
2022/03/24 08:31:53;;;;;;;63.70;34.63;;;11.70;75.20;;;10.29;68.55;101861.41;5025620;28;20103;-88
2022/03/24 08:34:22;;;;;;;65.05;34.38;;;11.80;74.50;;;10.38;67.00;101852.38;5029097;28;20073;-87
2022/03/24 08:36:49;;;;;;;58.95;33.58;;;11.90;74.50;;;10.49;67.64;101854.03;5025139;28;20126;-88
2022/03/24 08:39:17;;;;;;;61.85;34.15;;;12.00;73.90;;;10.60;66.42;101853.81;5011470;28;20061;-87
2022/03/24 08:41:44;;;;;;;63.60;34.28;;;12.00;73.80;;;10.65;66.79;101854.22;5012402;28;20128;-88
2022/03/24 08:44:11;;;;;;;59.05;34.03;;;12.10;72.10;;;10.71;66.70;101856.34;5029499;28;20045;-88
2022/03/24 08:46:39;;;;;;;62.85;34.60;;;12.20;71.50;;;10.81;65.55;101853.56;5026832;28;20084;-88
2022/03/24 08:49:06;;;;;;;60.72;34.92;;;12.30;72.60;;;10.91;63.44;101853.50;4998873;28;20054;-87
2022/03/24 08:51:35;;;;;;;66.60;35.75;;;12.40;71.30;;;10.96;62.53;101852.00;4992927;28;20038;-88
2022/03/24 08:54:02;;;;;;;65.43;35.72;;;12.40;70.10;;;11.07;62.44;101858.28;5009781;28;20048;-88
2022/03/24 08:56:29;;;;;;;61.97;36.20;;;12.50;70.80;;;11.18;64.37;101847.13;5013494;28;20076;-89
2022/03/24 08:58:57;;;;;;;59.42;35.35;;;12.60;69.90;;;11.29;60.78;101857.81;4993040;28;20052;-88
2022/03/24 09:01:24;;;;;;;62.28;34.85;;;12.70;69.90;;;11.35;61.27;101851.72;5024490;28;20069;-87
2022/03/24 09:03:52;;;;;;;68.72;36.58;;;12.80;69.00;;;11.50;60.20;101853.91;5018380;28;20619;-88
2022/03/24 09:06:19;;;;;;;64.85;35.13;;;12.90;69.80;;;11.60;58.62;101859.25;5029096;28;20404;-88
2022/03/24 09:08:49;;;;;;;65.50;34.25;;;12.90;68.20;;;11.63;57.68;101854.34;5028333;28;20444;-88
2022/03/24 09:11:17;;;;;;;60.17;34.13;;;13.00;67.50;;;11.73;55.76;101860.56;5017673;28;20045;-85
2022/03/24 09:13:44;;;;;;;58.13;34.92;;;13.00;65.60;;;11.80;55.43;101858.03;5018421;28;20555;-85
2022/03/24 09:16:12;;;;;;;58.63;35.45;;;13.10;65.40;;;11.87;55.87;101861.84;5026910;28;20045;-85
2022/03/24 09:18:42;;;;;;;63.08;35.03;;;13.20;65.40;;;11.96;53.57;101864.66;5012572;28;20119;-85
2022/03/24 09:21:09;;;;;;;65.03;35.67;;;13.20;64.60;;;12.03;55.09;101852.94;5018068;28;20649;-86
2022/03/24 09:23:37;;;;;;;63.83;36.00;;;13.30;63.40;;;12.08;54.74;101856.03;5011262;28;20046;-87
2022/03/24 09:26:05;;;;;;;64.57;35.88;;;13.40;62.20;;;12.09;54.69;101855.03;5024123;28;20045;-91
2022/03/24 09:28:33;;;;;;;62.53;35.88;;;13.50;63.30;;;12.09;54.92;101865.94;5030198;28;20499;-88
2022/03/24 09:31:00;;;;;;;57.92;36.15;;;13.50;62.40;;;12.07;53.00;101862.53;5017679;28;20034;-87
2022/03/24 09:33:28;;;;;;;71.10;37.00;;;13.50;61.50;;;12.15;54.51;101863.56;5027155;28;20108;-87
2022/03/24 09:35:55;;;;;;;67.40;36.55;;;13.50;60.10;;;12.17;53.08;101861.56;5015777;28;20069;-87
2022/03/24 09:38:22;;;;;;;68.03;37.17;;;13.50;60.20;;;12.18;52.16;101861.38;5016778;28;20463;-87
2022/03/24 09:40:52;;;;;;;62.63;35.47;;;13.60;59.50;;;12.28;52.19;101859.41;5006587;28;20084;-87
2022/03/24 09:43:23;;;;;;;61.53;36.70;;;13.60;59.50;;;12.29;50.34;101861.09;5010384;28;20125;-87
2022/03/24 09:45:52;;;;;;;60.25;35.75;;;13.70;60.10;;;12.37;52.16;101857.53;5010342;28;20053;-87
2022/03/24 09:48:20;;;;;;;59.88;36.55;;;13.70;59.50;;;12.40;50.10;101859.97;5017921;28;20116;-87
2022/03/24 09:50:47;;;;;;;65.93;37.53;;;13.70;58.60;;;12.41;51.73;101864.38;5013952;28;20147;-87
2022/03/24 09:53:15;;;;;;;69.95;38.13;;;13.70;59.60;;;12.48;50.78;101854.53;5018336;28;20037;-89
2022/03/24 09:55:44;;;;;;;65.72;38.63;;;13.80;59.80;;;12.59;49.76;101850.66;5008523;28;20053;-89
2022/03/24 09:58:12;;;;;;;69.95;38.15;;;13.80;59.20;;;12.72;50.33;101850.19;5027479;28;20061;-86
2022/03/24 10:00:41;;;;;;;68.43;37.83;;;13.90;59.70;;;12.79;50.04;101851.22;5019061;28;20109;-85
2022/03/24 10:03:12;;;;;;;65.70;37.20;;;14.00;59.40;;;12.77;48.99;101847.78;5025124;28;20046;-90
2022/03/24 10:05:56;;;;;;;65.80;37.70;;;14.00;57.10;;;12.80;47.94;101850.22;5003537;28;20053;-79
2022/03/24 10:08:23;;;;;;;71.22;38.47;;;14.10;57.70;;;12.87;49.12;101843.06;5028610;28;20053;-87
2022/03/24 10:11:58;;;;;;;67.95;38.80;;;14.10;57.30;;;12.93;47.70;101837.94;5019697;28;20096;-96
2022/03/24 10:14:26;;;;;;;69.82;40.20;;;14.20;57.00;;;13.02;47.11;101842.38;4982333;28;20057;-86
2022/03/24 10:16:54;;;;;;;66.72;37.63;;;14.20;54.70;;;12.99;46.60;101840.00;5015771;28;20034;-87